createdAt,value
2023-05-18T00:00:35.916Z,2.17
2023-05-18T00:01:17.672Z,2.35
2023-05-18T00:02:00.380Z,2.10
2023-05-18T00:02:42.599Z,2.13
2023-05-18T00:03:24.684Z,2.47
2023-05-18T00:04:08.608Z,2.88
2023-05-18T00:04:50.651Z,2.42
2023-05-18T00:05:34.370Z,2.80
2023-05-18T00:06:17.638Z,2.63
2023-05-18T00:07:03.312Z,2.97
2023-05-18T00:07:45.594Z,2.97
2023-05-18T00:08:27.391Z,2.72
2023-05-18T00:09:09.495Z,3.03
2023-05-18T00:09:51.302Z,2.85
2023-05-18T00:10:33.134Z,3.00
2023-05-18T00:11:15.021Z,2.63
2023-05-18T00:11:57.141Z,2.97
2023-05-18T00:12:38.988Z,3.75
2023-05-18T00:13:20.697Z,2.38
2023-05-18T00:14:03.372Z,2.40
2023-05-18T00:14:45.601Z,2.20
2023-05-18T00:15:27.489Z,2.40
2023-05-18T00:16:12.032Z,2.20
2023-05-18T00:16:54.769Z,2.10
2023-05-18T00:17:36.891Z,2.08
2023-05-18T00:18:21.200Z,2.40
2023-05-18T00:19:03.113Z,2.70
2023-05-18T00:19:46.864Z,3.30
2023-05-18T00:20:29.540Z,2.97
2023-05-18T00:21:11.396Z,3.22
2023-05-18T00:21:53.179Z,2.58
2023-05-18T00:22:34.953Z,2.85
2023-05-18T00:23:17.271Z,3.15
2023-05-18T00:23:59.280Z,2.67
2023-05-18T00:24:40.991Z,2.53
2023-05-18T00:25:23.232Z,2.30
2023-05-18T00:26:05.569Z,2.28
2023-05-18T00:26:55.982Z,2.47
2023-05-18T00:27:37.740Z,2.10
2023-05-18T00:28:19.665Z,2.42
2023-05-18T00:29:01.632Z,2.45
2023-05-18T00:29:43.433Z,2.30
2023-05-18T00:30:27.361Z,2.42
2023-05-18T00:31:11.721Z,2.40
2023-05-18T00:31:53.575Z,2.60
2023-05-18T00:32:35.817Z,2.53
2023-05-18T00:33:17.637Z,2.78
2023-05-18T00:34:03.796Z,2.20
2023-05-18T00:34:45.665Z,3.00
2023-05-18T00:35:27.512Z,2.42
2023-05-18T00:36:09.452Z,2.50
2023-05-18T00:36:51.505Z,2.50
2023-05-18T00:37:33.399Z,2.45
2023-05-18T00:38:15.578Z,2.65
2023-05-18T00:38:59.026Z,2.50
2023-05-18T00:39:41.017Z,2.50
2023-05-18T00:40:25.006Z,2.53
2023-05-18T00:41:06.864Z,1.85
2023-05-18T00:41:48.683Z,2.05
2023-05-18T00:42:30.660Z,1.60
2023-05-18T00:43:12.406Z,2.13
2023-05-18T00:43:55.211Z,1.95
2023-05-18T00:44:37.087Z,2.05
2023-05-18T00:45:19.378Z,1.92
2023-05-18T00:46:01.258Z,1.83
2023-05-18T00:46:44.294Z,1.30
2023-05-18T00:47:27.599Z,1.75
2023-05-18T00:48:09.398Z,1.50
2023-05-18T00:48:52.215Z,1.50
2023-05-18T00:49:33.924Z,1.42
2023-05-18T00:50:15.782Z,1.52
2023-05-18T00:50:57.462Z,1.50
2023-05-18T00:51:40.678Z,1.48
2023-05-18T00:52:23.727Z,1.23
2023-05-18T00:53:05.673Z,0.90
2023-05-18T00:53:47.757Z,1.45
2023-05-18T00:54:29.506Z,1.13
2023-05-18T00:55:12.604Z,1.17
2023-05-18T00:55:54.294Z,1.27
2023-05-18T00:56:41.884Z,1.10
2023-05-18T00:57:24.168Z,1.25
2023-05-18T00:58:05.973Z,1.48
2023-05-18T00:58:47.867Z,1.20
2023-05-18T00:59:30.769Z,1.25
2023-05-18T01:00:15.117Z,1.23
2023-05-18T01:00:57.026Z,1.10
2023-05-18T01:01:43.750Z,0.82
2023-05-18T01:02:30.107Z,1.40
2023-05-18T01:03:12.275Z,1.20
2023-05-18T01:03:56.578Z,1.10
2023-05-18T01:04:41.420Z,1.50
2023-05-18T01:05:23.314Z,1.10
2023-05-18T01:06:09.252Z,0.88
2023-05-18T01:06:56.430Z,1.02
2023-05-18T01:07:39.682Z,1.10
2023-05-18T01:08:23.070Z,1.30
2023-05-18T01:09:07.278Z,1.25
2023-05-18T01:09:49.252Z,1.02
2023-05-18T01:10:33.738Z,1.05
2023-05-18T01:11:26.833Z,1.30
2023-05-18T01:12:24.824Z,1.38
2023-05-18T01:13:15.558Z,1.52
2023-05-18T01:14:24.853Z,1.60
2023-05-18T01:15:35.609Z,1.10
2023-05-18T01:16:27.151Z,1.23
2023-05-18T01:17:47.425Z,1.00
2023-05-18T01:18:38.185Z,1.15
2023-05-18T01:19:24.026Z,1.35
2023-05-18T01:20:15.630Z,1.00
2023-05-18T01:21:11.118Z,1.33
2023-05-18T01:22:29.591Z,1.20
2023-05-18T01:23:48.591Z,1.52
2023-05-18T01:24:38.712Z,1.67
2023-05-18T01:25:51.351Z,1.38
2023-05-18T01:26:37.672Z,1.65
2023-05-18T01:27:24.591Z,1.05
2023-05-18T01:28:17.128Z,1.00
2023-05-18T01:29:01.559Z,1.25
2023-05-18T01:29:46.022Z,1.45
2023-05-18T01:30:28.239Z,1.55
2023-05-18T01:31:11.195Z,1.40
2023-05-18T01:31:53.258Z,1.55
2023-05-18T01:32:42.677Z,1.13
2023-05-18T01:33:25.228Z,1.20
2023-05-18T01:34:06.955Z,1.52
2023-05-18T01:34:49.086Z,1.05
2023-05-18T01:35:31.322Z,1.52
2023-05-18T01:36:13.501Z,1.17
2023-05-18T01:36:55.202Z,1.50
2023-05-18T01:37:36.915Z,1.40
2023-05-18T01:38:22.129Z,1.45
2023-05-18T01:39:04.027Z,1.38
2023-05-18T01:39:45.872Z,1.13
2023-05-18T01:40:37.181Z,1.00
2023-05-18T01:41:27.279Z,1.48
2023-05-18T01:42:13.078Z,1.00
2023-05-18T01:43:03.344Z,1.10
2023-05-18T01:44:09.457Z,1.20
2023-05-18T01:44:55.392Z,1.30
2023-05-18T01:45:40.867Z,1.35
2023-05-18T01:46:34.745Z,1.50
2023-05-18T01:47:18.262Z,1.23
2023-05-18T01:48:02.899Z,1.20
2023-05-18T01:48:54.532Z,1.30
2023-05-18T01:50:08.653Z,1.00
2023-05-18T01:50:52.144Z,1.83
2023-05-18T01:51:36.338Z,1.15
2023-05-18T01:52:37.427Z,1.20
2023-05-18T01:53:25.487Z,1.23
2023-05-18T01:54:09.764Z,1.90
2023-05-18T01:54:56.503Z,1.30
2023-05-18T01:55:42.720Z,0.90
2023-05-18T01:56:26.174Z,1.38
2023-05-18T01:57:09.414Z,1.30
2023-05-18T01:57:52.661Z,1.40
2023-05-18T01:58:38.377Z,1.02
2023-05-18T01:59:20.644Z,1.10
2023-05-18T02:00:09.053Z,1.38
2023-05-18T02:01:01.479Z,1.23
2023-05-18T02:01:43.248Z,1.40
2023-05-18T02:02:25.715Z,1.38
2023-05-18T02:03:07.770Z,1.15
2023-05-18T02:03:51.442Z,1.15
2023-05-18T02:04:36.216Z,1.63
2023-05-18T02:05:18.222Z,1.67
2023-05-18T02:05:59.999Z,1.17
2023-05-18T02:06:42.027Z,1.05
2023-05-18T02:07:23.755Z,1.58
2023-05-18T02:08:06.382Z,1.70
2023-05-18T02:08:48.865Z,1.17
2023-05-18T02:09:31.275Z,1.40
2023-05-18T02:10:13.351Z,1.42
2023-05-18T02:10:55.340Z,1.13
2023-05-18T02:11:37.173Z,1.55
2023-05-18T02:12:19.166Z,1.20
2023-05-18T02:13:00.912Z,1.20
2023-05-18T02:13:43.086Z,1.50
2023-05-18T02:14:25.071Z,1.15
2023-05-18T02:15:07.657Z,1.00
2023-05-18T02:15:50.360Z,1.38
2023-05-18T02:16:32.365Z,1.40
2023-05-18T02:17:14.078Z,1.13
2023-05-18T02:17:58.158Z,1.52
2023-05-18T02:18:40.202Z,1.52
2023-05-18T02:19:25.208Z,1.20
2023-05-18T02:20:08.314Z,1.08
2023-05-18T02:20:50.696Z,1.35
2023-05-18T02:21:34.658Z,1.20
2023-05-18T02:22:18.454Z,1.30
2023-05-18T02:23:01.101Z,1.13
2023-05-18T02:23:42.813Z,1.50
2023-05-18T02:24:24.799Z,1.38
2023-05-18T02:25:07.265Z,1.10
2023-05-18T02:25:48.987Z,1.17
2023-05-18T02:26:31.032Z,1.52
2023-05-18T02:27:15.172Z,1.55
2023-05-18T02:27:57.026Z,1.00
2023-05-18T02:28:40.078Z,1.38
2023-05-18T02:29:21.797Z,0.90
2023-05-18T02:30:05.812Z,1.33
2023-05-18T02:30:47.704Z,1.55
2023-05-18T02:31:30.935Z,1.27
2023-05-18T02:32:12.796Z,1.30
2023-05-18T02:32:55.069Z,1.42
2023-05-18T02:33:40.210Z,1.10
2023-05-18T02:34:22.855Z,1.30
2023-05-18T02:35:08.896Z,1.38
2023-05-18T02:35:52.258Z,1.23
2023-05-18T02:36:43.079Z,1.38
2023-05-18T02:37:24.842Z,1.23
2023-05-18T02:38:07.277Z,1.40
2023-05-18T02:38:49.106Z,1.40
2023-05-18T02:39:31.153Z,1.50
2023-05-18T02:40:14.279Z,0.90
2023-05-18T02:40:56.506Z,1.23
2023-05-18T02:41:38.687Z,1.20
2023-05-18T02:42:20.542Z,1.58
2023-05-18T02:43:02.288Z,1.40
2023-05-18T02:43:45.054Z,1.42
2023-05-18T02:44:26.830Z,1.23
2023-05-18T02:45:09.128Z,1.00
2023-05-18T02:45:51.424Z,1.13
2023-05-18T02:46:33.363Z,1.23
2023-05-18T02:47:15.127Z,1.42
2023-05-18T02:47:56.988Z,1.17
2023-05-18T02:48:38.861Z,1.20
2023-05-18T02:49:20.655Z,0.95
2023-05-18T02:50:02.744Z,1.08
2023-05-18T02:50:48.974Z,1.30
2023-05-18T02:51:31.617Z,1.30
2023-05-18T02:52:16.255Z,1.35
2023-05-18T02:52:58.634Z,1.50
2023-05-18T02:53:46.316Z,1.13
2023-05-18T02:54:31.761Z,1.23
2023-05-18T02:55:14.153Z,1.30
2023-05-18T02:56:13.760Z,1.20
2023-05-18T02:57:08.069Z,1.58
2023-05-18T02:57:57.556Z,1.52
2023-05-18T02:58:57.930Z,1.27
2023-05-18T02:59:52.003Z,1.40
2023-05-18T03:00:33.848Z,1.83
2023-05-18T03:01:15.645Z,1.40
2023-05-18T03:02:03.249Z,1.42
2023-05-18T03:02:48.221Z,1.42
2023-05-18T03:03:30.083Z,1.35
2023-05-18T03:04:11.808Z,1.42
2023-05-18T03:05:00.150Z,1.17
2023-05-18T03:05:42.356Z,1.08
2023-05-18T03:06:26.328Z,1.50
2023-05-18T03:07:10.423Z,1.10
2023-05-18T03:07:54.342Z,1.50
2023-05-18T03:08:41.037Z,1.08
2023-05-18T03:09:24.570Z,1.08
2023-05-18T03:10:08.913Z,1.30
2023-05-18T03:10:50.958Z,1.60
2023-05-18T03:11:32.927Z,1.20
2023-05-18T03:12:14.915Z,1.27
2023-05-18T03:12:56.757Z,1.48
2023-05-18T03:13:38.447Z,1.10
2023-05-18T03:14:20.553Z,1.52
2023-05-18T03:15:02.346Z,1.52
2023-05-18T03:15:45.554Z,1.45
2023-05-18T03:16:28.536Z,1.33
2023-05-18T03:17:10.674Z,1.60
2023-05-18T03:17:52.509Z,1.60
2023-05-18T03:18:34.245Z,1.20
2023-05-18T03:19:21.915Z,1.20
2023-05-18T03:20:04.928Z,1.30
2023-05-18T03:20:47.072Z,1.60
2023-05-18T03:21:33.606Z,1.27
2023-05-18T03:22:15.666Z,1.05
2023-05-18T03:22:58.047Z,1.15
2023-05-18T03:23:40.370Z,1.45
2023-05-18T03:24:22.204Z,1.10
2023-05-18T03:25:05.198Z,1.55
2023-05-18T03:25:47.112Z,1.63
2023-05-18T03:26:30.937Z,1.63
2023-05-18T03:27:13.181Z,1.33
2023-05-18T03:27:55.216Z,1.33
2023-05-18T03:28:39.851Z,1.35
2023-05-18T03:29:21.585Z,1.27
2023-05-18T03:30:04.195Z,1.50
2023-05-18T03:30:46.401Z,1.50
2023-05-18T03:31:28.360Z,1.30
2023-05-18T03:32:12.246Z,1.60
2023-05-18T03:32:54.421Z,1.33
2023-05-18T03:33:36.192Z,1.70
2023-05-18T03:34:17.930Z,1.20
2023-05-18T03:35:01.199Z,1.25
2023-05-18T03:35:43.256Z,1.17
2023-05-18T03:36:28.173Z,1.48
2023-05-18T03:37:09.969Z,1.40
2023-05-18T03:37:51.849Z,1.15
2023-05-18T03:38:33.641Z,1.17
2023-05-18T03:39:20.406Z,1.25
2023-05-18T03:40:13.315Z,1.73
2023-05-18T03:40:56.312Z,1.40
2023-05-18T03:41:38.125Z,1.70
2023-05-18T03:42:19.886Z,1.52
2023-05-18T03:43:01.673Z,1.40
2023-05-18T03:43:46.875Z,1.40
2023-05-18T03:44:28.904Z,1.48
2023-05-18T03:45:12.475Z,2.00
2023-05-18T03:45:54.334Z,1.38
2023-05-18T03:46:36.358Z,1.38
2023-05-18T03:47:18.874Z,1.50
2023-05-18T03:48:01.073Z,1.40
2023-05-18T03:48:42.797Z,1.48
2023-05-18T03:49:24.575Z,1.23
2023-05-18T03:50:08.937Z,1.55
2023-05-18T03:50:50.960Z,1.15
2023-05-18T03:51:32.843Z,1.20
2023-05-18T03:52:22.373Z,1.50
2023-05-18T03:53:04.203Z,1.73
2023-05-18T03:53:45.904Z,1.52
2023-05-18T03:54:27.562Z,1.40
2023-05-18T03:55:09.972Z,1.40
2023-05-18T03:55:52.270Z,1.45
2023-05-18T03:56:34.079Z,1.30
2023-05-18T03:57:18.066Z,1.25
2023-05-18T03:58:00.169Z,1.30
2023-05-18T03:58:42.404Z,1.98
2023-05-18T03:59:24.309Z,1.30
2023-05-18T04:00:12.059Z,1.40
2023-05-18T04:01:00.865Z,1.00
2023-05-18T04:01:44.402Z,1.20
2023-05-18T04:02:26.716Z,1.77
2023-05-18T04:03:12.800Z,1.52
2023-05-18T04:03:56.647Z,1.70
2023-05-18T04:04:45.976Z,1.70
2023-05-18T04:05:28.453Z,1.73
2023-05-18T04:06:10.987Z,1.40
2023-05-18T04:06:52.725Z,1.45
2023-05-18T04:07:34.478Z,1.27
2023-05-18T04:08:16.155Z,1.25
2023-05-18T04:09:02.611Z,1.17
2023-05-18T04:09:44.762Z,1.13
2023-05-18T04:10:26.733Z,1.65
2023-05-18T04:11:08.776Z,1.23
2023-05-18T04:11:50.558Z,1.17
2023-05-18T04:12:32.317Z,1.40
2023-05-18T04:13:14.132Z,1.27
2023-05-18T04:14:01.006Z,1.40
2023-05-18T04:14:43.033Z,1.17
2023-05-18T04:15:24.849Z,1.50
2023-05-18T04:16:07.216Z,1.40
2023-05-18T04:16:49.043Z,1.27
2023-05-18T04:17:30.850Z,1.55
2023-05-18T04:18:13.773Z,1.80
2023-05-18T04:18:57.315Z,1.70
2023-05-18T04:19:39.239Z,1.05
2023-05-18T04:20:21.318Z,1.50
2023-05-18T04:21:03.121Z,2.03
2023-05-18T04:21:47.313Z,1.63
2023-05-18T04:22:31.264Z,1.35
2023-05-18T04:23:13.152Z,1.20
2023-05-18T04:23:54.889Z,1.40
2023-05-18T04:24:37.359Z,1.30
2023-05-18T04:25:19.144Z,1.30
2023-05-18T04:26:03.530Z,1.38
2023-05-18T04:26:45.243Z,1.60
2023-05-18T04:27:26.938Z,1.40
2023-05-18T04:28:09.869Z,1.75
2023-05-18T04:28:51.618Z,1.40
2023-05-18T04:29:33.301Z,1.50
2023-05-18T04:30:15.066Z,1.52
2023-05-18T04:30:58.706Z,1.48
2023-05-18T04:31:44.553Z,1.67
2023-05-18T04:32:28.308Z,1.50
2023-05-18T04:33:10.674Z,1.67
2023-05-18T04:33:52.552Z,1.42
2023-05-18T04:34:37.986Z,1.52
2023-05-18T04:35:22.722Z,1.48
2023-05-18T04:36:05.584Z,1.35
2023-05-18T04:36:47.467Z,1.17
2023-05-18T04:37:29.261Z,1.27
2023-05-18T04:38:11.062Z,1.50
2023-05-18T04:38:58.538Z,1.05
2023-05-18T04:39:42.309Z,1.20
2023-05-18T04:40:26.366Z,1.30
2023-05-18T04:41:09.132Z,1.13
2023-05-18T04:41:59.969Z,1.38
2023-05-18T04:42:47.701Z,1.30
2023-05-18T04:43:33.127Z,1.30
2023-05-18T04:44:15.726Z,1.40
2023-05-18T04:44:58.965Z,1.23
2023-05-18T04:45:41.532Z,1.50
2023-05-18T04:46:23.810Z,1.45
2023-05-18T04:47:08.708Z,1.60
2023-05-18T04:47:54.613Z,0.90
2023-05-18T04:48:37.558Z,1.27
2023-05-18T04:49:22.774Z,1.75
2023-05-18T04:50:05.872Z,1.38
2023-05-18T04:50:47.639Z,1.60
2023-05-18T04:51:29.372Z,1.30
2023-05-18T04:52:11.536Z,1.35
2023-05-18T04:52:53.999Z,1.52
2023-05-18T04:53:38.976Z,1.70
2023-05-18T04:54:22.004Z,1.48
2023-05-18T04:55:04.056Z,1.27
2023-05-18T04:55:46.882Z,1.13
2023-05-18T04:56:29.577Z,1.08
2023-05-18T04:57:11.654Z,1.40
2023-05-18T04:57:58.049Z,1.48
2023-05-18T04:58:41.489Z,1.70
2023-05-18T04:59:26.581Z,1.52
2023-05-18T05:00:10.345Z,1.52
2023-05-18T05:00:52.568Z,1.42
2023-05-18T05:01:34.362Z,1.83
2023-05-18T05:02:16.161Z,1.10
2023-05-18T05:02:59.250Z,1.33
2023-05-18T05:03:44.989Z,1.20
2023-05-18T05:04:26.885Z,1.77
2023-05-18T05:05:09.064Z,1.90
2023-05-18T05:05:50.720Z,1.30
2023-05-18T05:06:32.407Z,1.50
2023-05-18T05:07:14.171Z,1.38
2023-05-18T05:08:00.543Z,1.55
2023-05-18T05:08:42.263Z,1.52
2023-05-18T05:09:23.951Z,1.25
2023-05-18T05:10:06.522Z,1.30
2023-05-18T05:10:48.250Z,1.40
2023-05-18T05:11:30.104Z,1.20
2023-05-18T05:12:12.543Z,1.70
2023-05-18T05:12:54.339Z,1.23
2023-05-18T05:13:36.527Z,1.42
2023-05-18T05:14:18.307Z,1.50
2023-05-18T05:14:59.980Z,1.10
2023-05-18T05:15:41.744Z,1.63
2023-05-18T05:16:23.524Z,1.20
2023-05-18T05:17:05.476Z,1.27
2023-05-18T05:17:47.938Z,1.70
2023-05-18T05:18:29.736Z,1.35
2023-05-18T05:19:11.464Z,1.15
2023-05-18T05:19:53.281Z,1.23
2023-05-18T05:20:35.017Z,1.05
2023-05-18T05:21:17.207Z,1.60
2023-05-18T05:21:58.926Z,1.60
2023-05-18T05:22:40.891Z,1.20
2023-05-18T05:23:25.301Z,1.30
2023-05-18T05:24:08.405Z,1.42
2023-05-18T05:24:50.896Z,1.50
2023-05-18T05:25:32.906Z,1.50
2023-05-18T05:26:16.100Z,1.77
2023-05-18T05:26:58.025Z,1.50
2023-05-18T05:27:40.007Z,1.20
2023-05-18T05:28:22.843Z,1.17
2023-05-18T05:29:04.666Z,1.05
2023-05-18T05:29:47.191Z,1.33
2023-05-18T05:30:29.072Z,1.27
2023-05-18T05:31:11.092Z,1.17
2023-05-18T05:31:52.893Z,1.30
2023-05-18T05:32:36.121Z,1.35
2023-05-18T05:33:18.780Z,1.40
2023-05-18T05:34:00.520Z,1.20
2023-05-18T05:34:46.664Z,1.20
2023-05-18T05:35:29.577Z,1.42
2023-05-18T05:36:13.189Z,1.38
2023-05-18T05:36:54.950Z,1.17
2023-05-18T05:37:36.868Z,1.17
2023-05-18T05:38:21.966Z,1.40
2023-05-18T05:39:04.633Z,1.17
2023-05-18T05:39:46.380Z,1.55
2023-05-18T05:40:31.080Z,1.05
2023-05-18T05:41:12.886Z,0.98
2023-05-18T05:41:54.583Z,1.02
2023-05-18T05:42:36.512Z,1.45
2023-05-18T05:43:18.340Z,1.30
2023-05-18T05:44:01.438Z,1.20
2023-05-18T05:44:44.347Z,1.27
2023-05-18T05:45:28.483Z,1.20
2023-05-18T05:46:13.215Z,1.48
2023-05-18T05:46:55.300Z,1.20
2023-05-18T05:47:37.289Z,1.05
2023-05-18T05:48:19.104Z,1.38
2023-05-18T05:49:02.136Z,1.30
2023-05-18T05:49:43.923Z,1.38
2023-05-18T05:50:27.585Z,1.15
2023-05-18T05:51:12.801Z,1.05
2023-05-18T05:51:54.839Z,1.23
2023-05-18T05:52:36.597Z,1.35
2023-05-18T05:53:23.507Z,0.93
2023-05-18T05:54:05.417Z,1.60
2023-05-18T05:54:47.325Z,1.17
2023-05-18T05:55:30.053Z,1.38
2023-05-18T05:56:11.997Z,1.35
2023-05-18T05:56:55.980Z,1.20
2023-05-18T05:57:39.806Z,1.23
2023-05-18T05:58:21.773Z,1.38
2023-05-18T05:59:10.755Z,1.42
2023-05-18T05:59:52.518Z,1.00
2023-05-18T06:00:34.282Z,1.30
2023-05-18T06:01:18.113Z,0.98
2023-05-18T06:02:00.005Z,1.23
2023-05-18T06:02:42.459Z,1.30
2023-05-18T06:03:24.385Z,1.10
2023-05-18T06:04:10.511Z,1.27
2023-05-18T06:04:52.587Z,1.48
2023-05-18T06:05:34.752Z,1.30
2023-05-18T06:06:17.498Z,1.35
2023-05-18T06:06:59.234Z,1.10
2023-05-18T06:07:41.157Z,1.23
2023-05-18T06:08:24.358Z,1.25
2023-05-18T06:09:06.444Z,1.40
2023-05-18T06:09:48.822Z,1.38
2023-05-18T06:10:31.182Z,1.17
2023-05-18T06:11:13.033Z,1.20
2023-05-18T06:11:55.499Z,1.20
2023-05-18T06:12:37.316Z,1.00
2023-05-18T06:13:19.076Z,1.30
2023-05-18T06:14:04.514Z,1.27
2023-05-18T06:14:46.277Z,1.27
2023-05-18T06:15:28.184Z,1.25
2023-05-18T06:16:10.390Z,1.48
2023-05-18T06:16:52.276Z,1.10
2023-05-18T06:17:34.018Z,1.40
2023-05-18T06:18:16.084Z,1.50
2023-05-18T06:18:59.113Z,1.10
2023-05-18T06:19:41.131Z,0.93
2023-05-18T06:20:22.917Z,1.40
2023-05-18T06:21:06.186Z,1.17
2023-05-18T06:21:47.994Z,1.35
2023-05-18T06:22:29.708Z,1.40
2023-05-18T06:23:26.288Z,1.00
2023-05-18T06:24:17.177Z,1.52
2023-05-18T06:25:19.009Z,1.08
2023-05-18T06:26:23.836Z,1.17
2023-05-18T06:27:42.405Z,1.20
2023-05-18T06:28:45.849Z,1.13
2023-05-18T06:29:38.584Z,1.42
2023-05-18T06:30:34.324Z,1.40
2023-05-18T06:31:36.688Z,1.20
2023-05-18T06:32:27.890Z,1.33
2023-05-18T06:33:11.057Z,1.20
2023-05-18T06:33:52.871Z,1.10
2023-05-18T06:34:34.607Z,1.00
2023-05-18T06:35:16.390Z,1.50
2023-05-18T06:35:58.182Z,1.45
2023-05-18T06:36:39.864Z,1.58
2023-05-18T06:37:21.634Z,1.10
2023-05-18T06:38:03.661Z,1.33
2023-05-18T06:38:45.414Z,1.33
2023-05-18T06:39:27.383Z,1.30
2023-05-18T06:40:10.436Z,1.77
2023-05-18T06:40:52.095Z,1.58
2023-05-18T06:41:33.994Z,1.08
2023-05-18T06:42:16.301Z,1.50
2023-05-18T06:43:17.017Z,1.00
2023-05-18T06:44:03.652Z,1.58
2023-05-18T06:44:52.065Z,1.15
2023-05-18T06:45:37.759Z,1.27
2023-05-18T06:46:35.602Z,1.67
2023-05-18T06:47:21.648Z,1.00
2023-05-18T06:48:04.101Z,1.38
2023-05-18T06:48:47.202Z,3.08
2023-05-18T06:49:29.032Z,1.92
2023-05-18T06:50:11.084Z,1.15
2023-05-18T06:50:52.914Z,1.27
2023-05-18T06:51:35.120Z,1.00
2023-05-18T06:52:16.911Z,1.30
2023-05-18T06:52:59.547Z,1.58
2023-05-18T06:53:41.341Z,1.70
2023-05-18T06:54:23.221Z,1.10
2023-05-18T06:55:05.599Z,1.55
2023-05-18T06:55:47.449Z,1.23
2023-05-18T06:56:29.441Z,2.05
2023-05-18T06:57:11.423Z,1.20
2023-05-18T06:57:56.806Z,1.65
2023-05-18T06:58:39.781Z,1.85
2023-05-18T06:59:22.364Z,1.52
2023-05-18T07:00:07.282Z,1.40
2023-05-18T07:00:49.396Z,1.13
2023-05-18T07:01:32.053Z,1.10
2023-05-18T07:02:15.914Z,1.20
2023-05-18T07:02:57.647Z,1.30
2023-05-18T07:03:39.514Z,1.35
2023-05-18T07:04:21.374Z,1.30
2023-05-18T07:05:05.598Z,1.70
2023-05-18T07:05:47.245Z,1.73
2023-05-18T07:06:29.049Z,1.95
2023-05-18T07:07:10.856Z,1.63
2023-05-18T07:07:52.649Z,1.58
2023-05-18T07:08:36.944Z,1.40
2023-05-18T07:09:18.667Z,1.40
2023-05-18T07:10:01.009Z,1.60
2023-05-18T07:10:42.847Z,1.20
2023-05-18T07:11:24.576Z,1.55
2023-05-18T07:12:06.700Z,1.42
2023-05-18T07:12:49.402Z,1.38
2023-05-18T07:13:31.347Z,1.48
2023-05-18T07:14:13.117Z,1.13
2023-05-18T07:14:54.871Z,1.85
2023-05-18T07:15:36.629Z,1.45
2023-05-18T07:16:18.521Z,1.35
2023-05-18T07:17:00.447Z,1.27
2023-05-18T07:17:42.473Z,1.65
2023-05-18T07:18:24.513Z,1.27
2023-05-18T07:19:06.497Z,1.55
2023-05-18T07:19:48.581Z,1.48
2023-05-18T07:20:30.348Z,1.55
2023-05-18T07:21:12.295Z,1.75
2023-05-18T07:21:54.122Z,1.60
2023-05-18T07:22:36.432Z,1.38
2023-05-18T07:23:18.186Z,1.30
2023-05-18T07:23:59.993Z,1.30
2023-05-18T07:24:41.795Z,1.45
2023-05-18T07:25:24.030Z,1.63
2023-05-18T07:26:08.176Z,1.00
2023-05-18T07:26:49.970Z,1.45
2023-05-18T07:27:33.239Z,1.60
2023-05-18T07:28:15.233Z,1.40
2023-05-18T07:28:56.949Z,1.17
2023-05-18T07:29:38.897Z,1.30
2023-05-18T07:30:22.152Z,1.33
2023-05-18T07:31:04.864Z,1.25
2023-05-18T07:31:46.835Z,1.13
2023-05-18T07:32:28.623Z,1.30
2023-05-18T07:33:10.481Z,1.27
2023-05-18T07:33:52.168Z,1.60
2023-05-18T07:34:33.899Z,0.98
2023-05-18T07:35:16.943Z,1.65
2023-05-18T07:35:58.660Z,1.88
2023-05-18T07:36:40.396Z,1.20
2023-05-18T07:37:22.181Z,1.40
2023-05-18T07:38:04.100Z,1.30
2023-05-18T07:38:45.858Z,1.45
2023-05-18T07:39:29.420Z,1.60
2023-05-18T07:40:12.869Z,1.63
2023-05-18T07:40:54.641Z,1.48
2023-05-18T07:41:36.458Z,1.30
2023-05-18T07:42:18.258Z,1.30
2023-05-18T07:43:00.058Z,1.30
2023-05-18T07:43:41.767Z,1.40
2023-05-18T07:44:24.325Z,1.30
2023-05-18T07:45:07.027Z,1.88
2023-05-18T07:45:48.827Z,1.30
2023-05-18T07:46:31.475Z,1.17
2023-05-18T07:47:13.482Z,1.40
2023-05-18T07:47:55.276Z,1.20
2023-05-18T07:48:39.718Z,1.27
2023-05-18T07:49:25.995Z,1.17
2023-05-18T07:50:08.306Z,1.23
2023-05-18T07:50:50.030Z,1.48
2023-05-18T07:51:32.202Z,0.95
2023-05-18T07:52:13.955Z,1.27
2023-05-18T07:52:56.196Z,1.23
2023-05-18T07:53:38.941Z,1.42
2023-05-18T07:54:20.715Z,1.27
2023-05-18T07:55:02.783Z,1.30
2023-05-18T07:55:44.530Z,1.20
2023-05-18T07:56:26.316Z,1.40
2023-05-18T07:57:08.192Z,1.60
2023-05-18T07:57:49.965Z,1.50
2023-05-18T07:58:31.994Z,1.30
2023-05-18T07:59:13.704Z,1.20
2023-05-18T07:59:55.401Z,1.50
2023-05-18T08:00:37.494Z,1.67
2023-05-18T08:01:19.472Z,1.23
2023-05-18T08:02:02.010Z,1.70
2023-05-18T08:02:45.119Z,2.80
2023-05-18T08:03:27.138Z,1.77
2023-05-18T08:04:09.047Z,1.33
2023-05-18T08:04:51.753Z,1.60
2023-05-18T08:05:33.792Z,1.45
2023-05-18T08:06:15.708Z,1.40
2023-05-18T08:07:00.785Z,1.13
2023-05-18T08:07:42.605Z,1.00
2023-05-18T08:08:24.411Z,1.17
2023-05-18T08:09:07.032Z,1.30
2023-05-18T08:09:48.732Z,1.38
2023-05-18T08:10:30.722Z,1.35
2023-05-18T08:11:12.739Z,1.35
2023-05-18T08:11:54.764Z,1.30
2023-05-18T08:12:36.589Z,1.50
2023-05-18T08:13:18.530Z,1.45
2023-05-18T08:14:00.266Z,1.40
2023-05-18T08:14:42.123Z,1.10
2023-05-18T08:15:23.893Z,1.20
2023-05-18T08:16:11.900Z,1.50
2023-05-18T08:16:54.360Z,1.15
2023-05-18T08:17:36.108Z,1.40
2023-05-18T08:18:17.958Z,1.30
2023-05-18T08:18:59.753Z,1.20
2023-05-18T08:19:42.143Z,1.40
2023-05-18T08:20:25.552Z,1.45
2023-05-18T08:21:10.290Z,1.30
2023-05-18T08:21:52.161Z,1.13
2023-05-18T08:22:33.900Z,1.30
2023-05-18T08:23:16.116Z,1.23
2023-05-18T08:23:57.828Z,1.20
2023-05-18T08:24:42.259Z,1.40
2023-05-18T08:25:26.865Z,1.23
2023-05-18T08:26:10.597Z,1.50
2023-05-18T08:26:53.593Z,1.23
2023-05-18T08:27:35.306Z,1.30
2023-05-18T08:28:17.100Z,0.90
2023-05-18T08:28:58.867Z,1.10
2023-05-18T08:29:40.629Z,1.55
2023-05-18T08:30:22.486Z,1.80
2023-05-18T08:31:04.447Z,1.42
2023-05-18T08:31:49.243Z,1.17
2023-05-18T08:32:32.439Z,1.50
2023-05-18T08:33:14.356Z,0.95
2023-05-18T08:33:56.332Z,1.35
2023-05-18T08:34:38.117Z,1.63
2023-05-18T08:35:19.876Z,1.13
2023-05-18T08:36:01.685Z,1.40
2023-05-18T08:36:45.683Z,1.27
2023-05-18T08:37:29.501Z,1.45
2023-05-18T08:38:11.382Z,1.10
2023-05-18T08:38:53.680Z,2.40
2023-05-18T08:39:36.875Z,1.42
2023-05-18T08:40:18.844Z,1.00
2023-05-18T08:41:19.143Z,1.40
2023-05-18T08:42:16.181Z,1.23
2023-05-18T08:43:07.183Z,1.25
2023-05-18T08:43:54.871Z,1.40
2023-05-18T08:44:54.360Z,1.50
2023-05-18T08:45:41.625Z,1.33
2023-05-18T08:46:33.292Z,1.50
2023-05-18T08:47:16.365Z,1.23
2023-05-18T08:48:01.052Z,1.40
2023-05-18T08:48:46.786Z,1.25
2023-05-18T08:49:31.004Z,1.20
2023-05-18T08:50:17.682Z,1.27
2023-05-18T08:51:03.422Z,0.85
2023-05-18T08:51:56.200Z,1.42
2023-05-18T08:52:43.773Z,1.67
2023-05-18T08:53:25.893Z,4.13
2023-05-18T08:54:08.879Z,2.92
2023-05-18T08:54:53.086Z,3.30
2023-05-18T08:55:37.076Z,1.95
2023-05-18T08:56:23.371Z,2.15
2023-05-18T08:57:09.656Z,1.70
2023-05-18T08:57:58.223Z,1.95
2023-05-18T08:58:50.287Z,1.98
2023-05-18T08:59:36.581Z,1.55
2023-05-18T09:00:18.996Z,1.27
2023-05-18T09:01:01.181Z,1.38
2023-05-18T09:01:43.254Z,1.27
2023-05-18T09:02:26.375Z,1.10
2023-05-18T09:03:08.365Z,1.40
2023-05-18T09:03:50.808Z,1.15
2023-05-18T09:04:34.707Z,1.40
2023-05-18T09:05:17.258Z,1.33
2023-05-18T09:06:01.023Z,1.40
2023-05-18T09:06:43.876Z,1.70
2023-05-18T09:07:27.684Z,1.25
2023-05-18T09:08:09.930Z,1.50
2023-05-18T09:08:53.328Z,1.85
2023-05-18T09:09:35.757Z,0.90
2023-05-18T09:10:18.544Z,1.20
2023-05-18T09:11:02.201Z,0.90
2023-05-18T09:11:44.748Z,1.40
2023-05-18T09:12:28.395Z,1.40
2023-05-18T09:13:11.951Z,1.20
2023-05-18T09:13:55.013Z,1.67
2023-05-18T09:14:36.879Z,1.35
2023-05-18T09:15:18.706Z,1.40
2023-05-18T09:16:00.464Z,1.35
2023-05-18T09:16:42.294Z,1.10
2023-05-18T09:17:24.267Z,1.67
2023-05-18T09:18:06.084Z,1.13
2023-05-18T09:18:47.966Z,1.30
2023-05-18T09:19:29.817Z,1.33
2023-05-18T09:20:12.203Z,1.45
2023-05-18T09:20:54.042Z,1.40
2023-05-18T09:21:35.800Z,1.17
2023-05-18T09:22:17.622Z,1.30
2023-05-18T09:22:59.891Z,1.88
2023-05-18T09:23:42.185Z,1.50
2023-05-18T09:24:25.018Z,1.63
2023-05-18T09:25:09.618Z,1.30
2023-05-18T09:25:52.886Z,1.20
2023-05-18T09:26:34.939Z,1.38
2023-05-18T09:27:16.961Z,1.30
2023-05-18T09:27:58.653Z,1.30
2023-05-18T09:28:42.546Z,1.52
2023-05-18T09:29:24.417Z,1.50
2023-05-18T09:30:11.168Z,1.40
2023-05-18T09:30:54.068Z,1.27
2023-05-18T09:31:37.953Z,1.40
2023-05-18T09:32:19.795Z,1.02
2023-05-18T09:33:01.993Z,1.48
2023-05-18T09:33:45.723Z,1.55
2023-05-18T09:34:39.522Z,1.70
2023-05-18T09:35:22.779Z,1.30
2023-05-18T09:36:06.572Z,1.27
2023-05-18T09:36:52.775Z,1.30
2023-05-18T09:37:35.957Z,1.70
2023-05-18T09:38:21.980Z,1.00
2023-05-18T09:39:10.129Z,1.40
2023-05-18T09:40:04.818Z,1.50
2023-05-18T09:40:46.959Z,1.60
2023-05-18T09:41:28.729Z,1.20
2023-05-18T09:42:10.518Z,1.42
2023-05-18T09:42:52.278Z,1.25
2023-05-18T09:43:35.997Z,1.10
2023-05-18T09:44:18.985Z,1.60